地図

経路データ

SID SEASON NUMBER BASIN SUBBASIN NAME ISO_TIME NATURE LAT LON WMO_WIND WMO_PRES WMO_AGENCY TRACK_TYPE DIST2LAND LANDFALL IFLAG USA_AGENCY USA_ATCF_ID USA_LAT USA_LON USA_RECORD USA_STATUS USA_WIND USA_PRES USA_SSHS USA_R34_NE USA_R34_SE USA_R34_SW USA_R34_NW USA_R50_NE USA_R50_SE USA_R50_SW USA_R50_NW USA_R64_NE USA_R64_SE USA_R64_SW USA_R64_NW USA_POCI USA_ROCI USA_RMW USA_EYE TOKYO_LAT TOKYO_LON TOKYO_GRADE TOKYO_WIND TOKYO_PRES TOKYO_R50_DIR TOKYO_R50_LONG TOKYO_R50_SHORT TOKYO_R30_DIR TOKYO_R30_LONG TOKYO_R30_SHORT TOKYO_LAND CMA_LAT CMA_LON CMA_CAT CMA_WIND CMA_PRES HKO_LAT HKO_LON HKO_CAT HKO_WIND HKO_PRES NEWDELHI_LAT NEWDELHI_LON NEWDELHI_GRADE NEWDELHI_WIND NEWDELHI_PRES NEWDELHI_CI NEWDELHI_DP NEWDELHI_POCI REUNION_LAT REUNION_LON REUNION_TYPE REUNION_WIND REUNION_PRES REUNION_TNUM REUNION_CI REUNION_RMW REUNION_R34_NE REUNION_R34_SE REUNION_R34_SW REUNION_R34_NW REUNION_R50_NE REUNION_R50_SE REUNION_R50_SW REUNION_R50_NW REUNION_R64_NE REUNION_R64_SE REUNION_R64_SW REUNION_R64_NW BOM_LAT BOM_LON BOM_TYPE BOM_WIND BOM_PRES BOM_TNUM BOM_CI BOM_RMW BOM_R34_NE BOM_R34_SE BOM_R34_SW BOM_R34_NW BOM_R50_NE BOM_R50_SE BOM_R50_SW BOM_R50_NW BOM_R64_NE BOM_R64_SE BOM_R64_SW BOM_R64_NW BOM_ROCI BOM_POCI BOM_EYE BOM_POS_METHOD BOM_PRES_METHOD NADI_LAT NADI_LON NADI_CAT NADI_WIND NADI_PRES WELLINGTON_LAT WELLINGTON_LON WELLINGTON_WIND WELLINGTON_PRES DS824_LAT DS824_LON DS824_STAGE DS824_WIND DS824_PRES TD9636_LAT TD9636_LON TD9636_STAGE TD9636_WIND TD9636_PRES TD9635_LAT TD9635_LON TD9635_WIND TD9635_PRES TD9635_ROCI NEUMANN_LAT NEUMANN_LON NEUMANN_CLASS NEUMANN_WIND NEUMANN_PRES MLC_LAT MLC_LON MLC_CLASS MLC_WIND MLC_PRES USA_GUST BOM_GUST BOM_GUST_PER REUNION_GUST REUNION_GUST_PER USA_SEAHGT USA_SEARAD_NE USA_SEARAD_SE USA_SEARAD_SW USA_SEARAD_NW STORM_SPEED STORM_DIR
1994067S14109 1994 18 SI WA MARIOLA 1994-03-07 12:00:00 TS -14.0000 108.600 main 688 688 O___________O_ jtwc_sh SH211994 -14.0000 108.600 20 -1 -14.0000 108.600 TC 20 9 265
1994067S14109 1994 18 SI WA MARIOLA 1994-03-07 15:00:00 TS -14.0402 108.158 main 694 694 P___________P_ SH211994 -14.0402 108.158 20 -1 -14.0402 108.158 TC 20 9 263
1994067S14109 1994 18 SI WA MARIOLA 1994-03-07 18:00:00 TS -14.1000 107.700 main 709 709 O___________O_ jtwc_sh SH211994 -14.1000 107.700 20 -1 -14.1000 107.700 TC 20 9 261
1994067S14109 1994 18 SI WA MARIOLA 1994-03-07 21:00:00 TS -14.1924 107.215 main 728 728 P___________P_ SH211994 -14.1924 107.215 20 -1 -14.1924 107.215 TC 20 10 258
1994067S14109 1994 18 SI WA MARIOLA 1994-03-08 00:00:00 TS -14.3000 106.700 main 748 748 O___________O_ jtwc_sh SH211994 -14.3000 106.700 20 -1 -14.3000 106.700 TC 20 10 259
1994067S14109 1994 18 SI WA MARIOLA 1994-03-08 03:00:00 TS -14.3999 106.157 main 770 770 P___________P_ SH211994 -14.3999 106.157 22 -1 -14.3999 106.157 TC 22 11 259
1994067S14109 1994 18 SI WA MARIOLA 1994-03-08 06:00:00 TS -14.5000 105.600 main 798 798 O___________O_ jtwc_sh SH211994 -14.5000 105.600 25 -1 -14.5000 105.600 TC 25 11 259
1994067S14109 1994 18 SI WA MARIOLA 1994-03-08 09:00:00 TS -14.6073 105.058 main 818 818 P___________P_ SH211994 -14.6073 105.058 25 -1 -14.6073 105.058 TC 25 11 259
1994067S14109 1994 18 SI WA MARIOLA 1994-03-08 12:00:00 TS -14.7000 104.500 main 843 843 O___________O_ jtwc_sh SH211994 -14.7000 104.500 25 -1 -14.7000 104.500 TC 25 11 262
1994067S14109 1994 18 SI WA MARIOLA 1994-03-08 15:00:00 TS -14.7573 103.915 main 872 872 P___________P_ SH211994 -14.7573 103.915 25 -1 -14.7573 103.915 TC 25 12 265
1994067S14109 1994 18 SI WA MARIOLA 1994-03-08 18:00:00 TS -14.8000 103.300 main 895 895 O___________O_ jtwc_sh SH211994 -14.8000 103.300 25 -1 -14.8000 103.300 TC 25 12 266
1994067S14109 1994 18 SI WA MARIOLA 1994-03-08 21:00:00 TS -14.8498 102.665 main 921 921 P___________P_ SH211994 -14.8498 102.665 25 -1 -14.8498 102.665 TC 25 13 265
1994067S14109 1994 18 SI WA MARIOLA 1994-03-09 00:00:00 TS -14.9000 102.000 main 967 967 O___________O_ jtwc_sh SH211994 -14.9000 102.000 25 -1 -14.9000 102.000 TC 25 13 266
1994067S14109 1994 18 SI WA MARIOLA 1994-03-09 03:00:00 TS -14.9497 101.322 main 1002 1002 P___________P_ SH211994 -14.9497 101.322 27 -1 -14.9497 101.322 TC 27 14 266
1994067S14109 1994 18 SI WA MARIOLA 1994-03-09 06:00:00 TS -15.0000 100.600 main 1046 1046 O___________O_ jtwc_sh SH211994 -15.0000 100.600 30 -1 -15.0000 100.600 TC 30 15 266
1994067S14109 1994 18 SI WA MARIOLA 1994-03-09 09:00:00 TS -15.0574 99.8076 main 1100 1100 P___________P_ SH211994 -15.0574 99.8076 30 -1 -15.0574 99.8076 TC 30 16 266
1994067S14109 1994 18 SI WA MARIOLA 1994-03-09 12:00:00 TS -15.1000 99.0000 main 1149 1149 O___________O_ jtwc_sh SH211994 -15.1000 99.0000 30 -1 -15.1000 99.0000 TC 30 15 268
1994067S14109 1994 18 SI WA MARIOLA 1994-03-09 15:00:00 TS -15.1072 98.2424 main 1203 1203 P___________P_ SH211994 -15.1072 98.2424 30 -1 -15.1072 98.2424 TC 30 14 270
1994067S14109 1994 18 SI WA MARIOLA 1994-03-09 18:00:00 TS -15.1000 97.5000 main 1253 1253 O___________O_ jtwc_sh SH211994 -15.1000 97.5000 30 -1 -15.1000 97.5000 TC 30 14 270
1994067S14109 1994 18 SI WA MARIOLA 1994-03-09 21:00:00 TS -15.1073 96.7501 main 1305 1305 P___________P_ SH211994 -15.1073 96.7501 30 -1 -15.1073 96.7501 TC 30 14 270
1994067S14109 1994 18 SI WA MARIOLA 1994-03-10 00:00:00 TS -15.1000 96.0000 main 1368 1368 O___________O_ jtwc_sh SH211994 -15.1000 96.0000 30 -1 -15.1000 96.0000 TC 30 15 272
1994067S14109 1994 18 SI WA MARIOLA 1994-03-10 03:00:00 TS -15.0498 95.2499 main 1426 1426 P___________P_ SH211994 -15.0498 95.2499 30 -1 -15.0498 95.2499 TC 30 15 274
1994067S14109 1994 18 SI WA MARIOLA 1994-03-10 06:00:00 TS -15.0000 94.5000 main 1485 1485 O___________O_ jtwc_sh SH211994 -15.0000 94.5000 30 -1 -15.0000 94.5000 TC 30 15 272
1994067S14109 1994 18 SI WA MARIOLA 1994-03-10 09:00:00 TS -14.9923 93.7501 main 1541 1541 P___________P_ SH211994 -14.9923 93.7501 32 -1 -14.9923 93.7501 TC 32 16 270
1994067S14109 1994 18 SI WA MARIOLA 1994-03-10 12:00:00 TS -15.0111 92.8889 main 1605 1605 O____O______O_ jtwc_sh SH211994 -15.0000 93.0000 35 0 -15.1000 92.0000 2 30 995 2.50000 2.50000 -15.0000 93.0000 TC 35 16 269
1994067S14109 1994 18 SI WA MARIOLA 1994-03-10 15:00:00 TS -15.0294 92.0615 main 1663 1663 P____P______P_ SH211994 -14.9998 92.2500 35 0 -15.1478 91.3075 2 32 993 -14.9998 92.2500 TC 35 16 268
1994067S14109 1994 18 SI WA MARIOLA 1994-03-10 18:00:00 TS -15.0545 91.2545 main 1717 1717 O____O______O_ jtwc_sh SH211994 -15.0000 91.5000 35 0 -15.2000 90.6000 3 35 992 3.00000 3.00000 -15.0000 91.5000 TC 35 16 268
1994067S14109 1994 18 SI WA MARIOLA 1994-03-10 21:00:00 TS -15.0807 90.4541 main 1761 1761 P____P______P_ SH211994 -14.9923 90.7424 35 0 -15.2575 89.8776 3 37 990 -14.9923 90.7424 TC 35 15 268
1994067S14109 1994 18 SI MM MARIOLA 1994-03-11 00:00:00 TS -15.1000 89.7333 40 988 reunion main 1809 1809 O____O______O_ jtwc_sh SH211994 -15.0000 90.0000 35 0 -15.3000 89.2000 3 40 988 3.00000 3.00000 -15.0000 90.0000 TC 35 13 268
1994067S14109 1994 18 SI MM MARIOLA 1994-03-11 03:00:00 TS -15.1381 89.0684 main 1847 1847 P____P______P_ SH211994 -15.0498 89.2851 37 0 -15.3146 88.6350 3 42 986 -15.0498 89.2851 TC 37 13 267
1994067S14109 1994 18 SI MM MARIOLA 1994-03-11 06:00:00 TS -15.1667 88.4333 45 984 reunion main 1901 1901 O____O______O_ jtwc_sh SH211994 -15.1000 88.6000 40 0 -15.3000 88.1000 3 45 984 3.50000 3.50000 -15.1000 88.6000 TC 40 12 269
1994067S14109 1994 18 SI MM MARIOLA 1994-03-11 09:00:00 TS -15.1573 87.7999 main 1942 1942 P____P______P_ SH211994 -15.1072 87.9424 50 0 -15.2573 87.5150 3 47 980 -15.1072 87.9424 TC 50 12 272
1994067S14109 1994 18 SI MM MARIOLA 1994-03-11 12:00:00 TS -15.1333 87.1667 50 977 reunion main 1975 1975 O____O______O_ jtwc_sh SH211994 -15.1000 87.3000 60 0 -15.2000 86.9000 3 50 977 4.00000 4.00000 -15.1000 87.3000 TC 60 12 272
1994067S14109 1994 18 SI MM MARIOLA 1994-03-11 15:00:00 TS -15.1140 86.5142 main 2026 2026 P____P______P_ SH211994 -15.0999 86.6425 70 1 -15.1424 86.2575 3 54 973 -15.0999 86.6425 TC 70 13 272
1994067S14109 1994 18 SI MM MARIOLA 1994-03-11 18:00:00 TS -15.1000 85.8667 58 970 reunion main 2071 2071 O____O______O_ jtwc_sh SH211994 -15.1000 86.0000 80 1 -15.1000 85.6000 3 58 970 4.50000 4.50000 -15.1000 86.0000 TC 80 12 271
1994067S14109 1994 18 SI MM MARIOLA 1994-03-11 21:00:00 TS -15.0949 85.2300 main 2125 2125 P____P______P_ SH211994 -15.0998 85.3850 80 1 -15.0850 84.9200 3 60 968 -15.0998 85.3850 TC 80 12 270
1994067S14109 1994 18 SI MM MARIOLA 1994-03-12 00:00:00 TS -15.1000 84.6333 62 966 reunion main 2172 2172 O____O______O_ jtwc_sh SH211994 -15.1000 84.8000 80 1 -15.1000 84.3000 3 62 966 4.50000 4.50000 -15.1000 84.8000 TC 80 11 269
1994067S14109 1994 18 SI MM MARIOLA 1994-03-12 03:00:00 TS -15.1140 84.0942 main 2212 2212 P____P______P_ SH211994 -15.0999 84.2350 80 1 -15.1422 83.8125 3 62 966 -15.0999 84.2350 TC 80 10 268
1994067S14109 1994 18 SI MM MARIOLA 1994-03-12 06:00:00 TS -15.1333 83.6000 62 966 reunion main 2253 2253 O____O______O_ jtwc_sh SH211994 -15.1000 83.7000 80 1 -15.2000 83.4000 3 62 966 4.50000 4.50000 -15.1000 83.7000 TC 80 9 269
1994067S14109 1994 18 SI MM MARIOLA 1994-03-12 09:00:00 TS -15.1374 83.1183 main 2294 2294 P____P______P_ SH211994 -15.0849 83.1849 85 2 -15.2424 82.9849 3 60 968 -15.0849 83.1849 TC 85 9 268
1994067S14109 1994 18 SI MM MARIOLA 1994-03-12 12:00:00 TS -15.1667 82.6667 58 970 reunion main 2334 2334 O____O______O_ jtwc_sh SH211994 -15.1000 82.7000 90 2 -15.3000 82.6000 3 58 970 4.00000 4.50000 -15.1000 82.7000 TC 90 9 262
1994067S14109 1994 18 SI MM MARIOLA 1994-03-12 15:00:00 TS -15.2615 82.2426 main 2381 2379 P____P______P_ SH211994 -15.1924 82.2426 90 2 -15.3999 82.2425 3 58 970 -15.1924 82.2426 TC 90 8 256
1994067S14109 1994 18 SI MM MARIOLA 1994-03-12 18:00:00 TS -15.3667 81.8333 58 970 reunion main 2389 2387 O____O______O_ jtwc_sh SH211994 -15.3000 81.8000 90 2 -15.5000 81.9000 3 58 970 4.00000 4.50000 -15.3000 81.8000 TC 90 8 258
1994067S14109 1994 18 SI MM MARIOLA 1994-03-12 21:00:00 TS -15.4266 81.4141 main 2387 2387 P____P______P_ SH211994 -15.3575 81.3424 87 2 -15.5649 81.5575 3 55 973 -15.3575 81.3424 TC 87 8 263
1994067S14109 1994 18 SI MM MARIOLA 1994-03-13 00:00:00 TS -15.4667 81.0000 52 976 reunion main 2397 2397 O____O______O_ jtwc_sh SH211994 -15.4000 80.9000 85 2 -15.6000 81.2000 3 52 976 3.50000 4.00000 -15.4000 80.9000 TC 85 8 264
1994067S14109 1994 18 SI MM MARIOLA 1994-03-13 03:00:00 TS -15.5024 80.6050 main 2397 2397 P____P______P_ SH211994 -15.4499 80.4925 82 1 -15.6073 80.8299 3 52 976 -15.4499 80.4925 TC 82 8 265
1994067S14109 1994 18 SI MM MARIOLA 1994-03-13 06:00:00 TS -15.5333 80.2000 52 976 reunion main 2397 2384 O____O______O_ jtwc_sh SH211994 -15.5000 80.1000 80 1 -15.6000 80.4000 3 52 976 3.50000 4.00000 -15.5000 80.1000 TC 80 8 266
1994067S14109 1994 18 SI MM MARIOLA 1994-03-13 09:00:00 TS -15.5566 79.7574 main 2384 2332 P____P______P_ SH211994 -15.5424 79.7074 77 1 -15.5851 79.8574 3 52 976 -15.5424 79.7074 TC 77 9 266
1994067S14109 1994 18 SI MM MARIOLA 1994-03-13 12:00:00 TS -15.6000 79.3000 52 976 reunion main 2332 2288 O____O______O_ jtwc_sh SH211994 -15.6000 79.3000 75 1 -15.6000 79.3000 3 52 976 4.00000 4.00000 -15.6000 79.3000 TC 75 9 261
1994067S14109 1994 18 SI MM MARIOLA 1994-03-13 15:00:00 TS -15.6873 78.8600 main 2288 2233 P____P______P_ SH211994 -15.6924 78.8650 75 1 -15.6772 78.8500 3 52 976 -15.6924 78.8650 TC 75 9 257
1994067S14109 1994 18 SI MM MARIOLA 1994-03-13 18:00:00 TS -15.8000 78.4000 52 976 reunion main 2233 2179 O____O______O_ jtwc_sh SH211994 -15.8000 78.4000 75 1 -15.8000 78.4000 3 52 976 4.00000 4.00000 -15.8000 78.4000 TC 75 10 256
1994067S14109 1994 18 SI MM MARIOLA 1994-03-13 21:00:00 TS -15.9141 77.8933 main 2179 2124 P____P______P_ SH211994 -15.8999 77.9075 72 1 -15.9425 77.8650 3 53 975 -15.8999 77.9075 TC 72 10 257
1994067S14109 1994 18 SI MM MARIOLA 1994-03-14 00:00:00 TS -16.0333 77.3667 55 974 reunion main 2124 2067 O____O______O_ jtwc_sh SH211994 -16.0000 77.4000 70 1 -16.1000 77.3000 3 55 974 4.00000 4.00000 -16.0000 77.4000 TC 70 10 256
1994067S14109 1994 18 SI MM MARIOLA 1994-03-14 03:00:00 TS -16.1599 76.8400 main 2056 2012 P____P______P_ SH211994 -16.1074 76.8925 67 1 -16.2650 76.7351 3 55 974 -16.1074 76.8925 TC 67 10 257
1994067S14109 1994 18 SI MM MARIOLA 1994-03-14 06:00:00 TS -16.2667 76.3333 55 974 reunion main 2002 1961 O____O______O_ jtwc_sh SH211994 -16.2000 76.4000 65 1 -16.4000 76.2000 3 55 974 4.00000 4.00000 -16.2000 76.4000 TC 65 9 259
1994067S14109 1994 18 SI MM MARIOLA 1994-03-14 09:00:00 TS -16.3340 75.8708 main 1961 1917 P____P______P_ SH211994 -16.2649 75.9425 62 0 -16.4723 75.7274 3 55 974 -16.2649 75.9425 TC 62 9 263
1994067S14109 1994 18 SI MM MARIOLA 1994-03-14 12:00:00 TS -16.3667 75.4333 55 974 reunion main 1907 1866 O____O______O_ jtwc_sh SH211994 -16.3000 75.5000 60 0 -16.5000 75.3000 3 55 974 4.00000 4.00000 -16.3000 75.5000 TC 60 8 266
1994067S14109 1994 18 SI MM MARIOLA 1994-03-14 15:00:00 TS -16.3866 74.9900 main 1866 1825 P____P______P_ SH211994 -16.3149 75.0500 57 0 -16.5300 74.8701 3 53 975 -16.3149 75.0500 TC 57 8 270
1994067S14109 1994 18 SI MM MARIOLA 1994-03-14 18:00:00 TS -16.3667 74.5667 52 976 reunion main 1825 1787 O____O______O_ jtwc_sh SH211994 -16.3000 74.6000 55 0 -16.5000 74.5000 3 52 976 3.50000 4.00000 -16.3000 74.6000 TC 55 8 275
1994067S14109 1994 18 SI MM MARIOLA 1994-03-14 21:00:00 TS -16.3132 74.1784 main 1787 1749 P____P______P_ SH211994 -16.2799 74.1501 55 0 -16.3798 74.2350 3 52 976 -16.2799 74.1501 TC 55 8 283
1994067S14109 1994 18 SI MM MARIOLA 1994-03-15 00:00:00 TS -16.2000 73.8000 52 976 reunion main 1749 1716 O____O______O_ jtwc_sh SH211994 -16.2000 73.7000 55 0 -16.2000 74.0000 3 52 976 3.00000 4.00000 -16.2000 73.7000 TC 55 8 292
1994067S14109 1994 18 SI MM MARIOLA 1994-03-15 03:00:00 TS -16.0148 73.4250 main 1716 1683 P____P______P_ SH211994 -16.0223 73.2650 52 0 -15.9998 73.7451 3 52 976 -16.0223 73.2650 TC 52 9 297
1994067S14109 1994 18 SI MM MARIOLA 1994-03-15 06:00:00 TS -15.8000 73.0000 52 976 reunion main 1683 1640 O____O______O_ jtwc_sh SH211994 -15.8000 72.8000 50 0 -15.8000 73.4000 3 52 976 3.00000 4.00000 -15.8000 72.8000 TC 50 10 294
1994067S14109 1994 18 SI MM MARIOLA 1994-03-15 09:00:00 TS -15.6042 72.4725 main 1640 1589 P____P______P_ SH211994 -15.5925 72.2650 50 0 -15.6276 72.8874 3 48 980 -15.5925 72.2650 TC 50 11 289
1994067S14109 1994 18 SI MM MARIOLA 1994-03-15 12:00:00 TS -15.4333 71.9000 45 984 reunion main 1589 1544 O____O______O_ jtwc_sh SH211994 -15.4000 71.7000 50 0 -15.5000 72.3000 3 45 984 3.50000 3.50000 -15.4000 71.7000 TC 50 11 286
1994067S14109 1994 18 SI MM MARIOLA 1994-03-15 15:00:00 TS -15.2940 71.3600 main 1544 1489 P____P______P_ SH211994 -15.2274 71.1500 50 0 -15.4271 71.7801 3 45 984 -15.2274 71.1500 TC 50 11 282
1994067S14109 1994 18 SI MM MARIOLA 1994-03-15 18:00:00 TS -15.2000 70.8000 45 984 reunion main 1489 1431 O____O______O_ jtwc_sh SH211994 -15.1000 70.6000 50 0 -15.4000 71.2000 3 45 984 3.50000 3.50000 -15.1000 70.6000 TC 50 11 277
1994067S14109 1994 18 SI MM MARIOLA 1994-03-15 21:00:00 TS -15.1490 70.1984 main 1436 1378 P____P______P_ SH211994 -15.0273 70.0576 50 0 -15.3925 70.4800 3 46 982 -15.0273 70.0576 TC 50 12 273
1994067S14109 1994 18 SI MM MARIOLA 1994-03-16 00:00:00 TS -15.1333 69.5667 48 980 reunion main 1378 1320 O____O______O_ jtwc_sh SH211994 -15.0000 69.5000 50 0 -15.4000 69.7000 3 48 980 3.50000 3.50000 -15.0000 69.5000 TC 50 12 271
1994067S14109 1994 18 SI MM MARIOLA 1994-03-16 03:00:00 TS -15.1308 68.9142 main 1311 1254 P____P______P_ SH211994 -14.9924 68.9076 47 0 -15.4075 68.9276 3 48 980 -14.9924 68.9076 TC 47 13 270
1994067S14109 1994 18 SI MM MARIOLA 1994-03-16 06:00:00 TS -15.1333 68.2667 48 980 reunion main 1254 1198 O____O______O_ jtwc_sh SH211994 -15.0000 68.3000 45 0 -15.4000 68.2000 3 48 980 3.00000 3.50000 -15.0000 68.3000 TC 45 12 270
1994067S14109 1994 18 SI MM MARIOLA 1994-03-16 09:00:00 TS -15.1215 67.6567 main 1198 1142 P____P______P_ SH211994 -14.9999 67.6925 45 0 -15.3646 67.5850 3 46 982 -14.9999 67.6925 TC 45 12 272
1994067S14109 1994 18 SI MM MARIOLA 1994-03-16 12:00:00 TS -15.1000 67.0667 45 984 reunion main 1142 1087 O____O______O_ jtwc_sh SH211994 -15.0000 67.1000 45 0 -15.3000 67.0000 3 45 984 2.50000 3.50000 -15.0000 67.1000 TC 45 11 273
1994067S14109 1994 18 SI MM MARIOLA 1994-03-16 15:00:00 TS -15.0566 66.4707 main 1087 1039 P____P______P_ SH211994 -14.9848 66.5424 42 0 -15.2001 66.3274 3 42 986 -14.9848 66.5424 TC 42 11 273
1994067S14109 1994 18 SI MM MARIOLA 1994-03-16 18:00:00 TS -15.0333 65.9000 40 988 reunion main 1039 989 O____O______O_ jtwc_sh SH211994 -15.0000 66.0000 40 0 -15.1000 65.7000 3 40 988 3.00000 3.00000 -15.0000 66.0000 TC 40 11 269
1994067S14109 1994 18 SI MM MARIOLA 1994-03-16 21:00:00 TS -15.0757 65.3685 main 989 946 P____P______P_ SH211994 -15.0924 65.4426 40 0 -15.0422 65.2201 3 40 988 -15.0924 65.4426 TC 40 10 264
1994067S14109 1994 18 SI MM MARIOLA 1994-03-17 00:00:00 TS -15.1333 64.8667 40 988 reunion main 946 903 O____O______O_ jtwc_sh SH211994 -15.2000 64.9000 40 0 -15.0000 64.8000 3 40 988 3.00000 3.00000 -15.2000 64.9000 TC 40 10 266
1994067S14109 1994 18 SI MM MARIOLA 1994-03-17 03:00:00 TS -15.1474 64.3782 main 903 855 P____P______P_ SH211994 -15.2498 64.3924 37 0 -14.9424 64.3500 3 37 990 -15.2498 64.3924 TC 37 9 268
1994067S14109 1994 18 SI MM MARIOLA 1994-03-17 06:00:00 TS -15.1667 63.9000 35 992 reunion main 855 823 O____O______O_ jtwc_sh SH211994 -15.3000 63.9000 35 0 -14.9000 63.9000 3 35 992 3.00000 3.00000 -15.3000 63.9000 TC 35 9 266
1994067S14109 1994 18 SI MM MARIOLA 1994-03-17 09:00:00 TS -15.2182 63.4241 main 815 776 P____P______P_ SH211994 -15.3848 63.4074 35 0 -14.8849 63.4575 3 35 992 -15.3848 63.4074 TC 35 9 262
1994067S14109 1994 18 SI MM MARIOLA 1994-03-17 12:00:00 TS -15.3000 62.9333 35 992 reunion main 769 724 O____O______O_ jtwc_sh SH211994 -15.5000 62.9000 35 0 -14.9000 63.0000 3 35 992 2.50000 3.00000 -15.5000 62.9000 TC 35 10 259
1994067S14109 1994 18 SI MM MARIOLA 1994-03-17 15:00:00 TS -15.4091 62.4100 main 724 680 P____P______P_ SH211994 -15.6424 62.3650 32 -1 -14.9425 62.5000 3 35 992 -15.6424 62.3650 TC 32 10 260
1994067S14109 1994 18 SI MM MARIOLA 1994-03-17 18:00:00 TS -15.4800 61.8800 35 992 reunion main 680 646 O____O______O_ jtwc_sh SH211994 -15.8000 61.8000 30 -1 -15.0000 62.0000 3 35 992 2.50000 3.00000 -15.8000 61.8000 TC 30 10 265
1994067S14109 1994 18 SI MM MARIOLA 1994-03-17 21:00:00 TS -15.4976 61.3788 main 646 622 P____P______P_ SH211994 -15.9529 61.2077 30 -1 -15.0423 61.5499 3 32 993 -15.9529 61.2077 TC 30 9 273
1994067S14109 1994 18 SI MM MARIOLA 1994-03-18 00:00:00 TS -15.4333 60.9333 30 995 reunion main 625 619 O____O______O_ jtwc_sh SH211994 -16.1000 60.6000 30 -1 -15.1000 61.1000 2 30 995 2.50000 2.50000 -16.1000 60.6000 TC 30 8 294
1994067S14109 1994 18 SI MM MARIOLA 1994-03-18 03:00:00 TS -15.1699 60.6073 main 628 594 _____P________ SH211994 -1 -15.1699 60.6073 2 30 995 TC 8 279
1994067S14109 1994 18 SI MM MARIOLA 1994-03-18 06:00:00 TS -15.3000 60.1000 30 995 reunion main 594 552 _____O________ -1 -15.3000 60.1000 2 30 995 2.50000 2.50000 10 251
1994067S14109 1994 18 SI MM MARIOLA 1994-03-18 09:00:00 TS -15.5124 59.5999 main 552 503 _____P________ -1 -15.5124 59.5999 2 30 995 11 243
1994067S14109 1994 18 SI MM MARIOLA 1994-03-18 12:00:00 TS -15.8000 59.1000 30 995 reunion main 503 457 _____O________ -1 -15.8000 59.1000 2 30 995 2.50000 2.50000 11 238
1994067S14109 1994 18 SI MM MARIOLA 1994-03-18 15:00:00 TS -16.1124 58.5998 main 457 404 _____P________ -1 -16.1124 58.5998 2 30 995 12 234
1994067S14109 1994 18 SI MM MARIOLA 1994-03-18 18:00:00 TS -16.5000 58.1000 30 995 reunion main 404 346 _____O________ -1 -16.5000 58.1000 2 30 995 2.00000 2.50000 13 228
1994067S14109 1994 18 SI MM MARIOLA 1994-03-18 21:00:00 TS -17.0000 57.5852 main 346 293 _____P________ -1 -17.0000 57.5852 2 29 996 14 224
1994067S14109 1994 18 SI MM MARIOLA 1994-03-19 00:00:00 TS -17.5000 57.1000 28 997 reunion main 293 260 _____O________ -1 -17.5000 57.1000 2 28 997 2.00000 2.50000 13 224
1994067S14109 1994 18 SI MM MARIOLA 1994-03-19 03:00:00 TS -17.9023 56.6848 main 260 241 _____P________ -1 -17.9023 56.6848 2 26 998 10 227
1994067S14109 1994 18 SI MM MARIOLA 1994-03-19 06:00:00 TS -18.2000 56.3000 24 1000 reunion main 247 243 _____O________ -1 -18.2000 56.3000 2 24 1000 2.00000 2.00000 9 237
1994067S14109 1994 18 SI MM MARIOLA 1994-03-19 09:00:00 TS -18.3827 55.9051 main 253 253 _____P________ -1 -18.3827 55.9051 2 24 1001 8 248
1994067S14109 1994 18 SI MM MARIOLA 1994-03-19 12:00:00 TS -18.5000 55.5000 24 1002 reunion main 275 _____O________ -1 -18.5000 55.5000 6 24 1002 2.00000 2.00000 8 253

IBTrACS Databaseについて

本データベースは、米国NOAAが公開する1842年以降の世界の熱帯低気圧のベストトラックデータアーカイブInternational Best Track Archive for Climate Stewardship (IBTrACS)を、ウェブで閲覧しやすい形式に変換したものです。

最終更新日:2021-10-21